sensor_id;sensor_type;location;lat;lon;timestamp;temperature;humidity
42479;DHT22;28110;47.080;9.476;2023-04-24T00:01:28;10.50;99.90
42479;DHT22;28110;47.080;9.476;2023-04-24T00:03:55;10.40;99.90
42479;DHT22;28110;47.080;9.476;2023-04-24T00:06:21;10.40;99.90
42479;DHT22;28110;47.080;9.476;2023-04-24T00:08:48;10.40;99.90
42479;DHT22;28110;47.080;9.476;2023-04-24T00:11:14;10.40;99.90
42479;DHT22;28110;47.080;9.476;2023-04-24T00:13:40;10.40;99.90
42479;DHT22;28110;47.080;9.476;2023-04-24T00:16:05;10.40;99.90
42479;DHT22;28110;47.080;9.476;2023-04-24T00:18:31;10.30;99.90
42479;DHT22;28110;47.080;9.476;2023-04-24T00:20:56;10.40;99.90
42479;DHT22;28110;47.080;9.476;2023-04-24T00:23:22;10.30;99.90
42479;DHT22;28110;47.080;9.476;2023-04-24T00:25:47;10.20;99.90
42479;DHT22;28110;47.080;9.476;2023-04-24T00:28:13;10.20;99.90
42479;DHT22;28110;47.080;9.476;2023-04-24T00:30:39;10.20;99.90
42479;DHT22;28110;47.080;9.476;2023-04-24T00:33:05;10.20;99.90
42479;DHT22;28110;47.080;9.476;2023-04-24T00:35:30;10.20;99.90
42479;DHT22;28110;47.080;9.476;2023-04-24T00:37:56;10.10;99.90
42479;DHT22;28110;47.080;9.476;2023-04-24T00:40:22;10.20;99.90
42479;DHT22;28110;47.080;9.476;2023-04-24T00:42:47;10.20;99.90
42479;DHT22;28110;47.080;9.476;2023-04-24T00:45:13;10.20;99.90
42479;DHT22;28110;47.080;9.476;2023-04-24T00:47:40;10.20;99.90
42479;DHT22;28110;47.080;9.476;2023-04-24T00:50:07;10.10;99.90
42479;DHT22;28110;47.080;9.476;2023-04-24T00:52:33;10.20;99.90
42479;DHT22;28110;47.080;9.476;2023-04-24T00:54:59;10.10;99.90
42479;DHT22;28110;47.080;9.476;2023-04-24T00:57:25;10.10;99.90
42479;DHT22;28110;47.080;9.476;2023-04-24T00:59:51;10.00;99.90
42479;DHT22;28110;47.080;9.476;2023-04-24T01:02:17;9.90;99.90
42479;DHT22;28110;47.080;9.476;2023-04-24T01:04:43;9.90;99.90
42479;DHT22;28110;47.080;9.476;2023-04-24T01:07:09;9.80;99.90
42479;DHT22;28110;47.080;9.476;2023-04-24T01:09:38;9.80;99.90
42479;DHT22;28110;47.080;9.476;2023-04-24T01:12:05;9.70;99.90
42479;DHT22;28110;47.080;9.476;2023-04-24T01:14:31;9.70;99.90
42479;DHT22;28110;47.080;9.476;2023-04-24T01:16:56;9.70;99.90
42479;DHT22;28110;47.080;9.476;2023-04-24T01:19:23;9.70;99.90
42479;DHT22;28110;47.080;9.476;2023-04-24T01:21:51;9.70;99.90
42479;DHT22;28110;47.080;9.476;2023-04-24T01:24:19;9.60;99.90
42479;DHT22;28110;47.080;9.476;2023-04-24T01:26:45;9.60;99.90
42479;DHT22;28110;47.080;9.476;2023-04-24T01:29:11;9.60;99.90
42479;DHT22;28110;47.080;9.476;2023-04-24T01:31:38;9.60;99.90
42479;DHT22;28110;47.080;9.476;2023-04-24T01:34:04;9.50;99.90
42479;DHT22;28110;47.080;9.476;2023-04-24T01:36:30;9.50;99.90
42479;DHT22;28110;47.080;9.476;2023-04-24T01:38:57;9.50;99.90
42479;DHT22;28110;47.080;9.476;2023-04-24T01:41:22;9.50;99.90
42479;DHT22;28110;47.080;9.476;2023-04-24T01:43:49;9.50;99.90
42479;DHT22;28110;47.080;9.476;2023-04-24T01:46:15;9.40;99.90
42479;DHT22;28110;47.080;9.476;2023-04-24T01:48:41;9.40;99.90
42479;DHT22;28110;47.080;9.476;2023-04-24T01:51:07;9.40;99.90
42479;DHT22;28110;47.080;9.476;2023-04-24T01:53:32;9.40;99.90
42479;DHT22;28110;47.080;9.476;2023-04-24T01:55:58;9.40;99.90
42479;DHT22;28110;47.080;9.476;2023-04-24T01:58:23;9.40;99.90
42479;DHT22;28110;47.080;9.476;2023-04-24T02:00:49;9.40;99.90
42479;DHT22;28110;47.080;9.476;2023-04-24T02:03:15;9.40;99.90
42479;DHT22;28110;47.080;9.476;2023-04-24T02:05:44;9.40;99.90
42479;DHT22;28110;47.080;9.476;2023-04-24T02:08:10;9.40;99.90
42479;DHT22;28110;47.080;9.476;2023-04-24T02:10:35;9.30;99.90
42479;DHT22;28110;47.080;9.476;2023-04-24T02:13:01;9.30;99.90
42479;DHT22;28110;47.080;9.476;2023-04-24T02:15:26;9.30;99.90
42479;DHT22;28110;47.080;9.476;2023-04-24T02:17:52;9.20;99.90
42479;DHT22;28110;47.080;9.476;2023-04-24T02:20:17;9.20;99.90
42479;DHT22;28110;47.080;9.476;2023-04-24T02:22:43;9.20;99.90
42479;DHT22;28110;47.080;9.476;2023-04-24T02:25:09;9.20;99.90
42479;DHT22;28110;47.080;9.476;2023-04-24T02:27:34;9.10;99.90
42479;DHT22;28110;47.080;9.476;2023-04-24T02:30:00;9.10;99.90
42479;DHT22;28110;47.080;9.476;2023-04-24T02:32:26;9.10;99.90
42479;DHT22;28110;47.080;9.476;2023-04-24T02:34:51;9.00;99.90
42479;DHT22;28110;47.080;9.476;2023-04-24T02:37:17;9.00;99.90
42479;DHT22;28110;47.080;9.476;2023-04-24T02:39:42;9.00;99.90
42479;DHT22;28110;47.080;9.476;2023-04-24T02:42:08;9.00;99.90
42479;DHT22;28110;47.080;9.476;2023-04-24T02:44:33;9.00;99.90
42479;DHT22;28110;47.080;9.476;2023-04-24T02:46:59;9.00;99.90
42479;DHT22;28110;47.080;9.476;2023-04-24T02:49:24;8.90;99.90
42479;DHT22;28110;47.080;9.476;2023-04-24T02:51:51;8.80;99.90
42479;DHT22;28110;47.080;9.476;2023-04-24T02:54:16;8.80;99.90
42479;DHT22;28110;47.080;9.476;2023-04-24T02:56:42;8.80;99.90
42479;DHT22;28110;47.080;9.476;2023-04-24T02:59:08;8.80;99.90
42479;DHT22;28110;47.080;9.476;2023-04-24T03:01:33;8.80;99.90
42479;DHT22;28110;47.080;9.476;2023-04-24T03:03:59;8.80;99.90
42479;DHT22;28110;47.080;9.476;2023-04-24T03:06:24;8.90;99.90
42479;DHT22;28110;47.080;9.476;2023-04-24T03:08:50;8.90;99.90
42479;DHT22;28110;47.080;9.476;2023-04-24T03:11:15;8.90;99.90
42479;DHT22;28110;47.080;9.476;2023-04-24T03:13:41;8.90;99.90
42479;DHT22;28110;47.080;9.476;2023-04-24T03:16:06;8.90;99.90
42479;DHT22;28110;47.080;9.476;2023-04-24T03:18:32;8.80;99.90
42479;DHT22;28110;47.080;9.476;2023-04-24T03:20:57;8.80;99.90
42479;DHT22;28110;47.080;9.476;2023-04-24T03:23:23;8.80;99.90
42479;DHT22;28110;47.080;9.476;2023-04-24T03:25:48;8.70;99.90
42479;DHT22;28110;47.080;9.476;2023-04-24T03:28:14;8.80;99.90
42479;DHT22;28110;47.080;9.476;2023-04-24T03:30:40;8.70;99.90
42479;DHT22;28110;47.080;9.476;2023-04-24T03:33:05;8.70;99.90
42479;DHT22;28110;47.080;9.476;2023-04-24T03:35:31;8.80;99.90
42479;DHT22;28110;47.080;9.476;2023-04-24T03:37:56;8.80;99.90
42479;DHT22;28110;47.080;9.476;2023-04-24T03:40:22;8.80;99.90
42479;DHT22;28110;47.080;9.476;2023-04-24T03:42:47;8.80;99.90
42479;DHT22;28110;47.080;9.476;2023-04-24T03:45:13;8.70;99.90
42479;DHT22;28110;47.080;9.476;2023-04-24T03:47:38;8.80;99.90
42479;DHT22;28110;47.080;9.476;2023-04-24T03:50:04;8.80;99.90
42479;DHT22;28110;47.080;9.476;2023-04-24T03:52:30;8.80;99.90
42479;DHT22;28110;47.080;9.476;2023-04-24T03:54:56;8.80;99.90
42479;DHT22;28110;47.080;9.476;2023-04-24T03:57:21;8.80;99.90
42479;DHT22;28110;47.080;9.476;2023-04-24T03:59:47;8.80;99.90
42479;DHT22;28110;47.080;9.476;2023-04-24T04:02:12;8.80;99.90
42479;DHT22;28110;47.080;9.476;2023-04-24T04:04:38;8.80;99.90
42479;DHT22;28110;47.080;9.476;2023-04-24T04:07:03;8.80;99.90
42479;DHT22;28110;47.080;9.476;2023-04-24T04:09:30;8.80;99.90
42479;DHT22;28110;47.080;9.476;2023-04-24T04:11:56;8.80;99.90
42479;DHT22;28110;47.080;9.476;2023-04-24T04:14:22;8.80;99.90
42479;DHT22;28110;47.080;9.476;2023-04-24T04:16:48;8.80;99.90
42479;DHT22;28110;47.080;9.476;2023-04-24T04:19:14;8.90;99.90
42479;DHT22;28110;47.080;9.476;2023-04-24T04:21:39;8.90;99.90
42479;DHT22;28110;47.080;9.476;2023-04-24T04:24:05;8.90;99.90
42479;DHT22;28110;47.080;9.476;2023-04-24T04:26:31;8.90;99.90
42479;DHT22;28110;47.080;9.476;2023-04-24T04:28:58;8.90;99.90
42479;DHT22;28110;47.080;9.476;2023-04-24T04:31:23;9.00;99.90
42479;DHT22;28110;47.080;9.476;2023-04-24T04:33:50;9.00;99.90
42479;DHT22;28110;47.080;9.476;2023-04-24T04:36:15;8.90;99.90
42479;DHT22;28110;47.080;9.476;2023-04-24T04:38:42;8.80;99.90
42479;DHT22;28110;47.080;9.476;2023-04-24T04:41:08;8.80;99.90
42479;DHT22;28110;47.080;9.476;2023-04-24T04:43:33;8.80;99.90
42479;DHT22;28110;47.080;9.476;2023-04-24T04:45:59;8.80;99.90
42479;DHT22;28110;47.080;9.476;2023-04-24T04:48:26;8.80;99.90
42479;DHT22;28110;47.080;9.476;2023-04-24T04:50:52;8.80;99.90
42479;DHT22;28110;47.080;9.476;2023-04-24T04:53:18;8.80;99.90
42479;DHT22;28110;47.080;9.476;2023-04-24T04:55:43;8.90;99.90
42479;DHT22;28110;47.080;9.476;2023-04-24T04:58:09;8.90;99.90
42479;DHT22;28110;47.080;9.476;2023-04-24T05:00:34;8.90;99.90
42479;DHT22;28110;47.080;9.476;2023-04-24T05:03:02;8.80;99.90
42479;DHT22;28110;47.080;9.476;2023-04-24T05:05:28;8.80;99.90
42479;DHT22;28110;47.080;9.476;2023-04-24T05:07:54;8.90;99.90
42479;DHT22;28110;47.080;9.476;2023-04-24T05:10:19;8.90;99.90
42479;DHT22;28110;47.080;9.476;2023-04-24T05:12:45;8.90;99.90
42479;DHT22;28110;47.080;9.476;2023-04-24T05:15:10;9.00;99.90
42479;DHT22;28110;47.080;9.476;2023-04-24T05:17:36;9.00;99.90
42479;DHT22;28110;47.080;9.476;2023-04-24T05:20:03;9.00;99.90
42479;DHT22;28110;47.080;9.476;2023-04-24T05:22:31;9.10;99.90
42479;DHT22;28110;47.080;9.476;2023-04-24T05:24:56;9.10;99.90
42479;DHT22;28110;47.080;9.476;2023-04-24T05:27:22;9.10;99.90
42479;DHT22;28110;47.080;9.476;2023-04-24T05:29:48;9.10;99.90
42479;DHT22;28110;47.080;9.476;2023-04-24T05:32:13;9.10;99.90
42479;DHT22;28110;47.080;9.476;2023-04-24T05:34:39;9.20;99.90
42479;DHT22;28110;47.080;9.476;2023-04-24T05:37:04;9.20;99.90
42479;DHT22;28110;47.080;9.476;2023-04-24T05:39:33;9.20;99.90
42479;DHT22;28110;47.080;9.476;2023-04-24T05:41:59;9.10;99.90
42479;DHT22;28110;47.080;9.476;2023-04-24T05:44:26;9.20;99.90
42479;DHT22;28110;47.080;9.476;2023-04-24T05:46:52;9.20;99.90
42479;DHT22;28110;47.080;9.476;2023-04-24T05:49:17;9.00;99.90
42479;DHT22;28110;47.080;9.476;2023-04-24T05:51:43;9.10;99.90
42479;DHT22;28110;47.080;9.476;2023-04-24T05:54:08;9.10;99.90
42479;DHT22;28110;47.080;9.476;2023-04-24T05:56:34;9.10;99.90
42479;DHT22;28110;47.080;9.476;2023-04-24T05:59:00;9.10;99.90
42479;DHT22;28110;47.080;9.476;2023-04-24T06:01:25;9.10;99.90
42479;DHT22;28110;47.080;9.476;2023-04-24T06:03:51;9.20;99.90
42479;DHT22;28110;47.080;9.476;2023-04-24T06:06:17;9.20;99.90
42479;DHT22;28110;47.080;9.476;2023-04-24T06:08:44;9.10;99.90
42479;DHT22;28110;47.080;9.476;2023-04-24T06:11:10;9.10;99.90
42479;DHT22;28110;47.080;9.476;2023-04-24T06:13:36;9.10;99.90
42479;DHT22;28110;47.080;9.476;2023-04-24T06:16:01;9.20;99.90
42479;DHT22;28110;47.080;9.476;2023-04-24T06:18:27;9.20;99.90
42479;DHT22;28110;47.080;9.476;2023-04-24T06:20:52;9.20;99.90
42479;DHT22;28110;47.080;9.476;2023-04-24T06:23:18;9.20;99.90
42479;DHT22;28110;47.080;9.476;2023-04-24T06:25:43;9.20;99.90
42479;DHT22;28110;47.080;9.476;2023-04-24T06:28:09;9.30;99.90
42479;DHT22;28110;47.080;9.476;2023-04-24T06:30:34;9.30;99.90
42479;DHT22;28110;47.080;9.476;2023-04-24T06:33:00;9.30;99.90
42479;DHT22;28110;47.080;9.476;2023-04-24T06:35:25;9.30;99.90
42479;DHT22;28110;47.080;9.476;2023-04-24T06:37:51;9.30;99.90
42479;DHT22;28110;47.080;9.476;2023-04-24T06:40:16;9.40;99.90
42479;DHT22;28110;47.080;9.476;2023-04-24T06:42:44;9.40;99.90
42479;DHT22;28110;47.080;9.476;2023-04-24T06:45:09;9.40;99.90
42479;DHT22;28110;47.080;9.476;2023-04-24T06:47:35;9.40;99.90
42479;DHT22;28110;47.080;9.476;2023-04-24T06:50:01;9.40;99.90
42479;DHT22;28110;47.080;9.476;2023-04-24T06:52:27;9.40;99.90
42479;DHT22;28110;47.080;9.476;2023-04-24T06:54:52;9.40;99.90
42479;DHT22;28110;47.080;9.476;2023-04-24T06:57:24;9.30;99.90
42479;DHT22;28110;47.080;9.476;2023-04-24T06:59:50;9.30;99.90
42479;DHT22;28110;47.080;9.476;2023-04-24T07:02:16;9.30;99.90
42479;DHT22;28110;47.080;9.476;2023-04-24T07:04:41;9.40;99.90
42479;DHT22;28110;47.080;9.476;2023-04-24T07:07:07;9.30;99.90
42479;DHT22;28110;47.080;9.476;2023-04-24T07:09:34;9.30;99.90
42479;DHT22;28110;47.080;9.476;2023-04-24T07:12:04;9.40;99.90
42479;DHT22;28110;47.080;9.476;2023-04-24T07:14:29;9.50;99.90
42479;DHT22;28110;47.080;9.476;2023-04-24T07:16:55;9.50;99.90
42479;DHT22;28110;47.080;9.476;2023-04-24T07:19:22;9.50;99.90
42479;DHT22;28110;47.080;9.476;2023-04-24T07:21:47;9.50;99.90
42479;DHT22;28110;47.080;9.476;2023-04-24T07:24:13;9.50;99.90
42479;DHT22;28110;47.080;9.476;2023-04-24T07:26:38;9.50;99.90
42479;DHT22;28110;47.080;9.476;2023-04-24T07:29:05;9.60;99.90
42479;DHT22;28110;47.080;9.476;2023-04-24T07:31:31;9.60;99.90
42479;DHT22;28110;47.080;9.476;2023-04-24T07:33:57;9.70;99.90
42479;DHT22;28110;47.080;9.476;2023-04-24T07:36:23;9.80;99.90
42479;DHT22;28110;47.080;9.476;2023-04-24T07:38:49;9.90;99.90
42479;DHT22;28110;47.080;9.476;2023-04-24T07:41:15;9.90;99.90
42479;DHT22;28110;47.080;9.476;2023-04-24T07:43:41;9.90;99.90
42479;DHT22;28110;47.080;9.476;2023-04-24T07:46:08;10.10;99.90
42479;DHT22;28110;47.080;9.476;2023-04-24T07:48:33;10.20;99.90
42479;DHT22;28110;47.080;9.476;2023-04-24T07:50:59;10.50;99.90
42479;DHT22;28110;47.080;9.476;2023-04-24T07:53:25;10.60;99.90
42479;DHT22;28110;47.080;9.476;2023-04-24T07:55:50;10.60;99.90
42479;DHT22;28110;47.080;9.476;2023-04-24T07:58:16;10.80;99.90
42479;DHT22;28110;47.080;9.476;2023-04-24T08:00:41;11.30;99.90
42479;DHT22;28110;47.080;9.476;2023-04-24T08:03:07;11.60;99.90
42479;DHT22;28110;47.080;9.476;2023-04-24T08:05:32;11.70;99.90
42479;DHT22;28110;47.080;9.476;2023-04-24T08:07:58;11.70;99.90
42479;DHT22;28110;47.080;9.476;2023-04-24T08:10:24;11.70;99.90
42479;DHT22;28110;47.080;9.476;2023-04-24T08:12:50;11.80;99.90
42479;DHT22;28110;47.080;9.476;2023-04-24T08:15:16;12.00;99.90
42479;DHT22;28110;47.080;9.476;2023-04-24T08:17:41;12.10;99.90
42479;DHT22;28110;47.080;9.476;2023-04-24T08:20:08;12.20;99.90
42479;DHT22;28110;47.080;9.476;2023-04-24T08:22:39;12.20;99.90
42479;DHT22;28110;47.080;9.476;2023-04-24T08:25:05;12.20;99.90
42479;DHT22;28110;47.080;9.476;2023-04-24T08:27:31;12.10;99.90
42479;DHT22;28110;47.080;9.476;2023-04-24T08:29:57;12.00;99.90
42479;DHT22;28110;47.080;9.476;2023-04-24T08:32:24;11.90;99.90
42479;DHT22;28110;47.080;9.476;2023-04-24T08:34:49;11.80;99.90
42479;DHT22;28110;47.080;9.476;2023-04-24T08:37:15;11.70;99.90
42479;DHT22;28110;47.080;9.476;2023-04-24T08:39:40;11.60;99.90
42479;DHT22;28110;47.080;9.476;2023-04-24T08:42:06;11.60;99.90
42479;DHT22;28110;47.080;9.476;2023-04-24T08:44:34;11.50;99.90
42479;DHT22;28110;47.080;9.476;2023-04-24T08:47:02;11.30;99.90
42479;DHT22;28110;47.080;9.476;2023-04-24T08:49:29;11.10;99.90
42479;DHT22;28110;47.080;9.476;2023-04-24T08:51:54;10.90;99.90
42479;DHT22;28110;47.080;9.476;2023-04-24T08:54:20;10.90;99.90
42479;DHT22;28110;47.080;9.476;2023-04-24T08:56:48;10.80;99.90
42479;DHT22;28110;47.080;9.476;2023-04-24T08:59:15;10.70;99.90
42479;DHT22;28110;47.080;9.476;2023-04-24T09:01:41;10.80;99.90
42479;DHT22;28110;47.080;9.476;2023-04-24T09:04:08;10.70;99.90
42479;DHT22;28110;47.080;9.476;2023-04-24T09:06:38;10.80;99.90
42479;DHT22;28110;47.080;9.476;2023-04-24T09:09:04;11.00;99.90
42479;DHT22;28110;47.080;9.476;2023-04-24T09:11:31;11.10;99.90
42479;DHT22;28110;47.080;9.476;2023-04-24T09:14:00;11.00;99.90
42479;DHT22;28110;47.080;9.476;2023-04-24T09:16:27;11.10;99.90
42479;DHT22;28110;47.080;9.476;2023-04-24T09:18:53;11.10;99.90
42479;DHT22;28110;47.080;9.476;2023-04-24T09:21:21;11.10;99.90
42479;DHT22;28110;47.080;9.476;2023-04-24T09:23:46;11.10;99.90
42479;DHT22;28110;47.080;9.476;2023-04-24T09:26:12;11.10;99.90
42479;DHT22;28110;47.080;9.476;2023-04-24T09:28:41;11.00;99.90
42479;DHT22;28110;47.080;9.476;2023-04-24T09:31:13;11.10;99.90
42479;DHT22;28110;47.080;9.476;2023-04-24T09:33:40;11.10;99.90
42479;DHT22;28110;47.080;9.476;2023-04-24T09:36:05;11.10;99.90
42479;DHT22;28110;47.080;9.476;2023-04-24T09:38:38;11.10;99.90
42479;DHT22;28110;47.080;9.476;2023-04-24T09:41:08;11.20;99.90
42479;DHT22;28110;47.080;9.476;2023-04-24T09:43:38;11.30;99.90
42479;DHT22;28110;47.080;9.476;2023-04-24T09:46:07;11.40;99.90
42479;DHT22;28110;47.080;9.476;2023-04-24T09:48:36;11.50;99.90
42479;DHT22;28110;47.080;9.476;2023-04-24T09:51:03;11.60;99.90
42479;DHT22;28110;47.080;9.476;2023-04-24T09:53:30;11.60;99.90
42479;DHT22;28110;47.080;9.476;2023-04-24T09:55:56;11.70;99.90
42479;DHT22;28110;47.080;9.476;2023-04-24T09:58:28;11.70;99.90
42479;DHT22;28110;47.080;9.476;2023-04-24T10:00:54;11.70;99.90
42479;DHT22;28110;47.080;9.476;2023-04-24T10:03:20;11.70;99.90
42479;DHT22;28110;47.080;9.476;2023-04-24T10:05:46;11.80;99.90
42479;DHT22;28110;47.080;9.476;2023-04-24T10:08:13;12.00;99.90
42479;DHT22;28110;47.080;9.476;2023-04-24T10:10:40;11.90;99.90
42479;DHT22;28110;47.080;9.476;2023-04-24T10:13:07;12.00;99.90
42479;DHT22;28110;47.080;9.476;2023-04-24T10:15:35;12.20;99.90
42479;DHT22;28110;47.080;9.476;2023-04-24T10:18:02;12.30;99.90
42479;DHT22;28110;47.080;9.476;2023-04-24T10:20:29;12.40;99.90
42479;DHT22;28110;47.080;9.476;2023-04-24T10:22:57;12.50;99.90
42479;DHT22;28110;47.080;9.476;2023-04-24T10:25:26;12.50;99.90
42479;DHT22;28110;47.080;9.476;2023-04-24T10:27:53;12.40;99.90
42479;DHT22;28110;47.080;9.476;2023-04-24T10:30:22;12.30;99.90
42479;DHT22;28110;47.080;9.476;2023-04-24T10:32:48;12.30;99.90
42479;DHT22;28110;47.080;9.476;2023-04-24T10:35:14;12.40;99.90
42479;DHT22;28110;47.080;9.476;2023-04-24T10:37:45;12.50;99.90
42479;DHT22;28110;47.080;9.476;2023-04-24T10:40:11;12.50;99.90
42479;DHT22;28110;47.080;9.476;2023-04-24T10:42:41;12.60;99.90
42479;DHT22;28110;47.080;9.476;2023-04-24T10:45:19;12.60;99.90
42479;DHT22;28110;47.080;9.476;2023-04-24T10:48:01;12.50;99.90
42479;DHT22;28110;47.080;9.476;2023-04-24T10:50:28;12.60;99.90
42479;DHT22;28110;47.080;9.476;2023-04-24T10:53:13;12.50;99.90
42479;DHT22;28110;47.080;9.476;2023-04-24T10:58:12;12.10;99.90
42479;DHT22;28110;47.080;9.476;2023-04-24T11:00:39;12.00;99.90
42479;DHT22;28110;47.080;9.476;2023-04-24T11:03:06;11.70;99.90
42479;DHT22;28110;47.080;9.476;2023-04-24T11:05:51;11.60;99.90
42479;DHT22;28110;47.080;9.476;2023-04-24T11:08:26;11.70;99.90
42479;DHT22;28110;47.080;9.476;2023-04-24T11:13:25;11.30;99.90
42479;DHT22;28110;47.080;9.476;2023-04-24T11:16:29;11.10;99.90
42479;DHT22;28110;47.080;9.476;2023-04-24T11:19:04;11.00;99.90
42479;DHT22;28110;47.080;9.476;2023-04-24T11:21:41;10.90;99.90
42479;DHT22;28110;47.080;9.476;2023-04-24T11:27:18;11.10;99.90
42479;DHT22;28110;47.080;9.476;2023-04-24T11:32:27;11.60;99.90
42479;DHT22;28110;47.080;9.476;2023-04-24T11:34:58;11.80;99.90
42479;DHT22;28110;47.080;9.476;2023-04-24T11:37:28;12.00;99.90
42479;DHT22;28110;47.080;9.476;2023-04-24T11:39:57;12.20;99.90
42479;DHT22;28110;47.080;9.476;2023-04-24T11:42:23;12.40;99.90
42479;DHT22;28110;47.080;9.476;2023-04-24T11:44:49;12.60;99.90
42479;DHT22;28110;47.080;9.476;2023-04-24T11:47:15;12.60;99.90
42479;DHT22;28110;47.080;9.476;2023-04-24T11:49:41;12.60;99.90
42479;DHT22;28110;47.080;9.476;2023-04-24T11:52:07;12.60;99.90
42479;DHT22;28110;47.080;9.476;2023-04-24T11:54:32;12.60;99.90
42479;DHT22;28110;47.080;9.476;2023-04-24T11:56:58;12.60;99.90
42479;DHT22;28110;47.080;9.476;2023-04-24T11:59:24;12.60;99.90
42479;DHT22;28110;47.080;9.476;2023-04-24T12:01:49;12.60;99.90
42479;DHT22;28110;47.080;9.476;2023-04-24T12:04:17;12.50;99.90
42479;DHT22;28110;47.080;9.476;2023-04-24T12:07:02;12.50;99.90
42479;DHT22;28110;47.080;9.476;2023-04-24T12:09:28;12.50;99.90
42479;DHT22;28110;47.080;9.476;2023-04-24T12:11:57;12.70;99.90
42479;DHT22;28110;47.080;9.476;2023-04-24T12:14:24;12.80;99.90
42479;DHT22;28110;47.080;9.476;2023-04-24T12:16:50;12.80;99.90
42479;DHT22;28110;47.080;9.476;2023-04-24T12:19:22;12.80;99.90
42479;DHT22;28110;47.080;9.476;2023-04-24T12:22:05;12.70;99.90
42479;DHT22;28110;47.080;9.476;2023-04-24T12:24:31;12.50;99.90
42479;DHT22;28110;47.080;9.476;2023-04-24T12:26:57;12.40;99.90
42479;DHT22;28110;47.080;9.476;2023-04-24T12:29:24;12.30;99.90
42479;DHT22;28110;47.080;9.476;2023-04-24T12:31:51;12.40;99.90
42479;DHT22;28110;47.080;9.476;2023-04-24T12:34:25;12.40;99.90
42479;DHT22;28110;47.080;9.476;2023-04-24T12:36:50;12.40;99.90
42479;DHT22;28110;47.080;9.476;2023-04-24T12:39:17;12.50;99.90
42479;DHT22;28110;47.080;9.476;2023-04-24T12:41:57;12.60;99.90
42479;DHT22;28110;47.080;9.476;2023-04-24T12:44:32;12.60;99.90
42479;DHT22;28110;47.080;9.476;2023-04-24T12:47:00;12.50;99.90
42479;DHT22;28110;47.080;9.476;2023-04-24T12:49:25;12.60;99.90
42479;DHT22;28110;47.080;9.476;2023-04-24T12:51:51;12.60;99.90
42479;DHT22;28110;47.080;9.476;2023-04-24T12:54:17;12.60;99.90
42479;DHT22;28110;47.080;9.476;2023-04-24T12:56:42;12.70;99.90
42479;DHT22;28110;47.080;9.476;2023-04-24T12:59:08;12.70;99.90
42479;DHT22;28110;47.080;9.476;2023-04-24T13:01:33;12.80;99.90
42479;DHT22;28110;47.080;9.476;2023-04-24T13:03:59;13.00;99.90
42479;DHT22;28110;47.080;9.476;2023-04-24T13:06:24;13.00;99.90
42479;DHT22;28110;47.080;9.476;2023-04-24T13:08:51;13.00;99.90
42479;DHT22;28110;47.080;9.476;2023-04-24T13:11:17;13.10;99.90
42479;DHT22;28110;47.080;9.476;2023-04-24T13:13:43;13.30;99.90
42479;DHT22;28110;47.080;9.476;2023-04-24T13:16:09;13.40;99.90
42479;DHT22;28110;47.080;9.476;2023-04-24T13:18:34;13.50;99.90
42479;DHT22;28110;47.080;9.476;2023-04-24T13:21:00;13.70;99.90
42479;DHT22;28110;47.080;9.476;2023-04-24T13:23:26;13.70;99.90
42479;DHT22;28110;47.080;9.476;2023-04-24T13:25:51;13.70;99.90
42479;DHT22;28110;47.080;9.476;2023-04-24T13:28:17;13.70;99.90
42479;DHT22;28110;47.080;9.476;2023-04-24T13:30:43;13.90;99.90
42479;DHT22;28110;47.080;9.476;2023-04-24T13:33:08;14.00;99.90
42479;DHT22;28110;47.080;9.476;2023-04-24T13:35:34;14.10;99.90
42479;DHT22;28110;47.080;9.476;2023-04-24T13:37:59;14.20;99.90
42479;DHT22;28110;47.080;9.476;2023-04-24T13:40:27;14.20;99.90
42479;DHT22;28110;47.080;9.476;2023-04-24T13:42:52;14.30;99.90
42479;DHT22;28110;47.080;9.476;2023-04-24T13:45:18;14.40;99.90
42479;DHT22;28110;47.080;9.476;2023-04-24T13:47:43;14.40;99.90
42479;DHT22;28110;47.080;9.476;2023-04-24T13:50:09;14.50;99.90
42479;DHT22;28110;47.080;9.476;2023-04-24T13:52:35;14.40;99.90
42479;DHT22;28110;47.080;9.476;2023-04-24T13:55:01;14.30;99.90
42479;DHT22;28110;47.080;9.476;2023-04-24T13:57:26;14.40;99.90
42479;DHT22;28110;47.080;9.476;2023-04-24T13:59:53;14.50;99.90
42479;DHT22;28110;47.080;9.476;2023-04-24T14:02:21;14.60;99.90
42479;DHT22;28110;47.080;9.476;2023-04-24T14:04:46;14.70;99.90
42479;DHT22;28110;47.080;9.476;2023-04-24T14:07:13;14.90;99.90
42479;DHT22;28110;47.080;9.476;2023-04-24T14:09:39;14.90;99.90
42479;DHT22;28110;47.080;9.476;2023-04-24T14:12:04;15.00;99.90
42479;DHT22;28110;47.080;9.476;2023-04-24T14:14:31;15.10;99.90
42479;DHT22;28110;47.080;9.476;2023-04-24T14:16:57;15.20;99.90
42479;DHT22;28110;47.080;9.476;2023-04-24T14:19:22;15.20;99.90
42479;DHT22;28110;47.080;9.476;2023-04-24T14:21:48;15.30;99.90
42479;DHT22;28110;47.080;9.476;2023-04-24T14:24:13;15.20;99.90
42479;DHT22;28110;47.080;9.476;2023-04-24T14:26:39;15.10;99.90
42479;DHT22;28110;47.080;9.476;2023-04-24T14:29:05;15.00;99.90
42479;DHT22;28110;47.080;9.476;2023-04-24T14:31:31;14.90;99.90
42479;DHT22;28110;47.080;9.476;2023-04-24T14:33:56;14.70;99.90
42479;DHT22;28110;47.080;9.476;2023-04-24T14:36:22;14.50;99.90
42479;DHT22;28110;47.080;9.476;2023-04-24T14:38:49;14.30;99.90
42479;DHT22;28110;47.080;9.476;2023-04-24T14:41:14;14.30;99.90
42479;DHT22;28110;47.080;9.476;2023-04-24T14:43:40;14.30;99.90
42479;DHT22;28110;47.080;9.476;2023-04-24T14:46:05;14.30;99.90
42479;DHT22;28110;47.080;9.476;2023-04-24T14:48:31;14.30;99.90
42479;DHT22;28110;47.080;9.476;2023-04-24T14:50:57;14.30;99.90
42479;DHT22;28110;47.080;9.476;2023-04-24T14:53:22;14.40;99.10
42479;DHT22;28110;47.080;9.476;2023-04-24T14:55:48;14.40;98.70
42479;DHT22;28110;47.080;9.476;2023-04-24T14:58:13;14.40;97.40
42479;DHT22;28110;47.080;9.476;2023-04-24T15:00:39;14.40;97.70
42479;DHT22;28110;47.080;9.476;2023-04-24T15:03:04;14.40;97.70
42479;DHT22;28110;47.080;9.476;2023-04-24T15:05:30;14.40;95.30
42479;DHT22;28110;47.080;9.476;2023-04-24T15:07:56;14.40;95.20
42479;DHT22;28110;47.080;9.476;2023-04-24T15:10:21;14.40;94.20
42479;DHT22;28110;47.080;9.476;2023-04-24T15:12:48;14.40;96.20
42479;DHT22;28110;47.080;9.476;2023-04-24T15:15:14;14.40;96.40
42479;DHT22;28110;47.080;9.476;2023-04-24T15:17:39;14.40;94.00
42479;DHT22;28110;47.080;9.476;2023-04-24T15:20:07;14.40;95.00
42479;DHT22;28110;47.080;9.476;2023-04-24T15:22:33;14.50;94.50
42479;DHT22;28110;47.080;9.476;2023-04-24T15:24:58;14.40;92.00
42479;DHT22;28110;47.080;9.476;2023-04-24T15:27:24;14.30;92.60
42479;DHT22;28110;47.080;9.476;2023-04-24T15:29:49;14.20;95.30
42479;DHT22;28110;47.080;9.476;2023-04-24T15:32:15;14.00;95.60
42479;DHT22;28110;47.080;9.476;2023-04-24T15:34:41;13.90;97.00
42479;DHT22;28110;47.080;9.476;2023-04-24T15:37:06;13.80;96.20
42479;DHT22;28110;47.080;9.476;2023-04-24T15:39:32;13.60;97.40
42479;DHT22;28110;47.080;9.476;2023-04-24T15:41:58;13.60;97.30
42479;DHT22;28110;47.080;9.476;2023-04-24T15:44:25;13.50;98.00